sensor_id;sensor_type;location;lat;lon;timestamp;P1;durP1;ratioP1;P2;durP2;ratioP2
69392;SDS011;56582;44.624;20.378;2023-04-19T00:00:17;16.37;;;11.23;;
69392;SDS011;56582;44.624;20.378;2023-04-19T00:02:44;17.17;;;11.57;;
69392;SDS011;56582;44.624;20.378;2023-04-19T00:05:09;20.83;;;12.03;;
69392;SDS011;56582;44.624;20.378;2023-04-19T00:07:37;25.20;;;15.47;;
69392;SDS011;56582;44.624;20.378;2023-04-19T00:10:03;26.30;;;16.90;;
69392;SDS011;56582;44.624;20.378;2023-04-19T00:12:28;21.57;;;15.73;;
69392;SDS011;56582;44.624;20.378;2023-04-19T00:14:54;27.90;;;18.13;;
69392;SDS011;56582;44.624;20.378;2023-04-19T00:17:19;27.97;;;19.47;;
69392;SDS011;56582;44.624;20.378;2023-04-19T00:19:45;26.77;;;18.67;;
69392;SDS011;56582;44.624;20.378;2023-04-19T00:22:11;24.88;;;14.73;;
69392;SDS011;56582;44.624;20.378;2023-04-19T00:24:36;19.67;;;13.87;;
69392;SDS011;56582;44.624;20.378;2023-04-19T00:27:01;30.00;;;19.13;;
69392;SDS011;56582;44.624;20.378;2023-04-19T00:29:27;29.33;;;17.60;;
69392;SDS011;56582;44.624;20.378;2023-04-19T00:31:53;22.50;;;14.05;;
69392;SDS011;56582;44.624;20.378;2023-04-19T00:34:18;20.30;;;10.50;;
69392;SDS011;56582;44.624;20.378;2023-04-19T00:36:44;20.10;;;13.37;;
69392;SDS011;56582;44.624;20.378;2023-04-19T00:39:09;20.70;;;11.70;;
69392;SDS011;56582;44.624;20.378;2023-04-19T00:41:35;18.10;;;12.15;;
69392;SDS011;56582;44.624;20.378;2023-04-19T00:44:00;16.13;;;11.57;;
69392;SDS011;56582;44.624;20.378;2023-04-19T00:46:26;15.80;;;10.80;;
69392;SDS011;56582;44.624;20.378;2023-04-19T00:48:51;17.75;;;11.40;;
69392;SDS011;56582;44.624;20.378;2023-04-19T00:51:17;17.65;;;10.45;;
69392;SDS011;56582;44.624;20.378;2023-04-19T00:53:44;15.03;;;10.27;;
69392;SDS011;56582;44.624;20.378;2023-04-19T00:56:10;16.50;;;10.25;;
69392;SDS011;56582;44.624;20.378;2023-04-19T00:58:37;13.98;;;9.38;;
69392;SDS011;56582;44.624;20.378;2023-04-19T01:01:03;14.63;;;10.00;;
69392;SDS011;56582;44.624;20.378;2023-04-19T01:03:30;13.87;;;9.57;;
69392;SDS011;56582;44.624;20.378;2023-04-19T01:05:55;14.18;;;10.40;;
69392;SDS011;56582;44.624;20.378;2023-04-19T01:08:21;15.63;;;9.93;;
69392;SDS011;56582;44.624;20.378;2023-04-19T01:10:47;14.57;;;9.27;;
69392;SDS011;56582;44.624;20.378;2023-04-19T01:13:12;14.23;;;8.60;;
69392;SDS011;56582;44.624;20.378;2023-04-19T01:15:38;15.73;;;9.37;;
69392;SDS011;56582;44.624;20.378;2023-04-19T01:18:03;13.27;;;9.85;;
69392;SDS011;56582;44.624;20.378;2023-04-19T01:20:29;16.13;;;10.07;;
69392;SDS011;56582;44.624;20.378;2023-04-19T01:22:54;13.50;;;9.17;;
69392;SDS011;56582;44.624;20.378;2023-04-19T01:25:20;15.35;;;10.45;;
69392;SDS011;56582;44.624;20.378;2023-04-19T01:27:45;15.90;;;9.23;;
69392;SDS011;56582;44.624;20.378;2023-04-19T01:30:11;14.50;;;9.20;;
69392;SDS011;56582;44.624;20.378;2023-04-19T01:32:36;14.20;;;9.43;;
69392;SDS011;56582;44.624;20.378;2023-04-19T01:35:02;12.97;;;9.03;;
69392;SDS011;56582;44.624;20.378;2023-04-19T01:37:28;16.58;;;9.82;;
69392;SDS011;56582;44.624;20.378;2023-04-19T01:39:53;15.10;;;10.17;;
69392;SDS011;56582;44.624;20.378;2023-04-19T01:42:19;14.03;;;10.33;;
69392;SDS011;56582;44.624;20.378;2023-04-19T01:44:44;14.93;;;10.23;;
69392;SDS011;56582;44.624;20.378;2023-04-19T01:47:10;17.63;;;10.80;;
69392;SDS011;56582;44.624;20.378;2023-04-19T01:49:35;19.30;;;11.90;;
69392;SDS011;56582;44.624;20.378;2023-04-19T01:52:01;18.70;;;12.17;;
69392;SDS011;56582;44.624;20.378;2023-04-19T01:54:26;17.17;;;11.27;;
69392;SDS011;56582;44.624;20.378;2023-04-19T01:56:51;18.57;;;11.37;;
69392;SDS011;56582;44.624;20.378;2023-04-19T01:59:17;17.17;;;10.93;;
69392;SDS011;56582;44.624;20.378;2023-04-19T02:01:42;16.33;;;11.03;;
69392;SDS011;56582;44.624;20.378;2023-04-19T02:04:08;15.70;;;9.90;;
69392;SDS011;56582;44.624;20.378;2023-04-19T02:06:33;16.23;;;9.97;;
69392;SDS011;56582;44.624;20.378;2023-04-19T02:08:59;14.37;;;9.00;;
69392;SDS011;56582;44.624;20.378;2023-04-19T02:11:24;14.27;;;8.90;;
69392;SDS011;56582;44.624;20.378;2023-04-19T02:13:49;14.52;;;9.55;;
69392;SDS011;56582;44.624;20.378;2023-04-19T02:16:15;13.73;;;9.10;;
69392;SDS011;56582;44.624;20.378;2023-04-19T02:18:40;13.20;;;8.97;;
69392;SDS011;56582;44.624;20.378;2023-04-19T02:21:07;15.57;;;9.85;;
69392;SDS011;56582;44.624;20.378;2023-04-19T02:23:33;14.73;;;9.20;;
69392;SDS011;56582;44.624;20.378;2023-04-19T02:25:59;37.60;;;10.15;;
69392;SDS011;56582;44.624;20.378;2023-04-19T02:28:28;15.70;;;9.13;;
69392;SDS011;56582;44.624;20.378;2023-04-19T02:30:54;13.70;;;8.93;;
69392;SDS011;56582;44.624;20.378;2023-04-19T02:33:20;12.90;;;9.50;;
69392;SDS011;56582;44.624;20.378;2023-04-19T02:35:46;13.13;;;8.10;;
69392;SDS011;56582;44.624;20.378;2023-04-19T02:38:11;13.73;;;8.80;;
69392;SDS011;56582;44.624;20.378;2023-04-19T02:40:37;13.67;;;8.57;;
69392;SDS011;56582;44.624;20.378;2023-04-19T02:43:02;15.17;;;9.17;;
69392;SDS011;56582;44.624;20.378;2023-04-19T02:45:28;14.00;;;9.43;;
69392;SDS011;56582;44.624;20.378;2023-04-19T02:47:54;14.83;;;8.70;;
69392;SDS011;56582;44.624;20.378;2023-04-19T02:50:20;14.20;;;10.30;;
69392;SDS011;56582;44.624;20.378;2023-04-19T02:52:45;14.60;;;9.63;;
69392;SDS011;56582;44.624;20.378;2023-04-19T02:55:11;16.67;;;10.10;;
69392;SDS011;56582;44.624;20.378;2023-04-19T02:57:36;16.47;;;10.00;;
69392;SDS011;56582;44.624;20.378;2023-04-19T03:00:02;15.77;;;9.30;;
69392;SDS011;56582;44.624;20.378;2023-04-19T03:02:29;16.27;;;10.20;;
69392;SDS011;56582;44.624;20.378;2023-04-19T03:04:54;15.10;;;9.90;;
69392;SDS011;56582;44.624;20.378;2023-04-19T03:07:20;14.83;;;9.73;;
69392;SDS011;56582;44.624;20.378;2023-04-19T03:09:45;16.60;;;10.40;;
69392;SDS011;56582;44.624;20.378;2023-04-19T03:12:11;16.10;;;10.15;;
69392;SDS011;56582;44.624;20.378;2023-04-19T03:14:36;16.37;;;9.73;;
69392;SDS011;56582;44.624;20.378;2023-04-19T03:17:02;16.93;;;10.27;;
69392;SDS011;56582;44.624;20.378;2023-04-19T03:19:27;15.70;;;9.97;;
69392;SDS011;56582;44.624;20.378;2023-04-19T03:21:53;18.45;;;10.90;;
69392;SDS011;56582;44.624;20.378;2023-04-19T03:24:18;19.03;;;10.37;;
69392;SDS011;56582;44.624;20.378;2023-04-19T03:26:44;15.65;;;10.68;;
69392;SDS011;56582;44.624;20.378;2023-04-19T03:29:10;30.83;;;10.60;;
69392;SDS011;56582;44.624;20.378;2023-04-19T03:31:35;37.70;;;10.82;;
69392;SDS011;56582;44.624;20.378;2023-04-19T03:34:01;19.83;;;11.17;;
69392;SDS011;56582;44.624;20.378;2023-04-19T03:36:27;23.88;;;10.82;;
69392;SDS011;56582;44.624;20.378;2023-04-19T03:38:53;18.73;;;11.48;;
69392;SDS011;56582;44.624;20.378;2023-04-19T03:41:27;22.03;;;11.77;;
69392;SDS011;56582;44.624;20.378;2023-04-19T03:43:52;21.30;;;11.73;;
69392;SDS011;56582;44.624;20.378;2023-04-19T03:46:18;17.40;;;10.67;;
69392;SDS011;56582;44.624;20.378;2023-04-19T03:48:43;21.57;;;12.53;;
69392;SDS011;56582;44.624;20.378;2023-04-19T03:51:10;22.27;;;12.77;;
69392;SDS011;56582;44.624;20.378;2023-04-19T03:53:37;24.08;;;14.07;;
69392;SDS011;56582;44.624;20.378;2023-04-19T03:56:02;22.80;;;13.97;;
69392;SDS011;56582;44.624;20.378;2023-04-19T03:58:28;25.13;;;14.17;;
69392;SDS011;56582;44.624;20.378;2023-04-19T04:00:53;24.67;;;13.65;;
69392;SDS011;56582;44.624;20.378;2023-04-19T04:03:18;24.90;;;14.67;;
69392;SDS011;56582;44.624;20.378;2023-04-19T04:05:44;24.90;;;14.67;;
69392;SDS011;56582;44.624;20.378;2023-04-19T04:08:09;26.27;;;15.30;;
69392;SDS011;56582;44.624;20.378;2023-04-19T04:10:35;28.42;;;15.20;;
69392;SDS011;56582;44.624;20.378;2023-04-19T04:13:00;27.07;;;14.37;;
69392;SDS011;56582;44.624;20.378;2023-04-19T04:15:26;32.57;;;16.90;;
69392;SDS011;56582;44.624;20.378;2023-04-19T04:17:51;29.40;;;16.10;;
69392;SDS011;56582;44.624;20.378;2023-04-19T04:20:17;32.23;;;16.23;;
69392;SDS011;56582;44.624;20.378;2023-04-19T04:22:43;31.67;;;16.83;;
69392;SDS011;56582;44.624;20.378;2023-04-19T04:25:10;30.93;;;18.37;;
69392;SDS011;56582;44.624;20.378;2023-04-19T04:27:36;31.73;;;17.25;;
69392;SDS011;56582;44.624;20.378;2023-04-19T04:30:03;32.33;;;18.08;;
69392;SDS011;56582;44.624;20.378;2023-04-19T04:32:30;33.33;;;17.25;;
69392;SDS011;56582;44.624;20.378;2023-04-19T04:35:03;30.70;;;16.70;;
69392;SDS011;56582;44.624;20.378;2023-04-19T04:37:32;29.53;;;16.20;;
69392;SDS011;56582;44.624;20.378;2023-04-19T04:39:59;34.50;;;17.85;;
69392;SDS011;56582;44.624;20.378;2023-04-19T04:42:25;33.22;;;18.58;;
69392;SDS011;56582;44.624;20.378;2023-04-19T04:44:51;35.20;;;19.02;;
69392;SDS011;56582;44.624;20.378;2023-04-19T04:47:17;31.30;;;17.07;;
69392;SDS011;56582;44.624;20.378;2023-04-19T04:49:43;32.70;;;17.33;;
69392;SDS011;56582;44.624;20.378;2023-04-19T04:52:08;34.37;;;19.47;;
69392;SDS011;56582;44.624;20.378;2023-04-19T04:54:34;36.57;;;19.77;;
69392;SDS011;56582;44.624;20.378;2023-04-19T04:56:59;36.60;;;19.20;;
69392;SDS011;56582;44.624;20.378;2023-04-19T04:59:25;36.53;;;18.67;;
69392;SDS011;56582;44.624;20.378;2023-04-19T05:01:51;41.33;;;21.20;;
69392;SDS011;56582;44.624;20.378;2023-04-19T05:04:17;32.93;;;18.67;;
69392;SDS011;56582;44.624;20.378;2023-04-19T05:06:42;33.63;;;18.27;;
69392;SDS011;56582;44.624;20.378;2023-04-19T05:09:08;32.53;;;17.88;;
69392;SDS011;56582;44.624;20.378;2023-04-19T05:11:34;36.93;;;21.27;;
69392;SDS011;56582;44.624;20.378;2023-04-19T05:14:00;32.50;;;18.08;;
69392;SDS011;56582;44.624;20.378;2023-04-19T05:16:26;28.75;;;15.80;;
69392;SDS011;56582;44.624;20.378;2023-04-19T05:18:51;29.60;;;16.47;;
69392;SDS011;56582;44.624;20.378;2023-04-19T05:21:17;28.73;;;16.80;;
69392;SDS011;56582;44.624;20.378;2023-04-19T05:23:42;29.00;;;16.30;;
69392;SDS011;56582;44.624;20.378;2023-04-19T05:26:08;27.37;;;16.07;;
69392;SDS011;56582;44.624;20.378;2023-04-19T05:28:39;28.15;;;15.25;;
69392;SDS011;56582;44.624;20.378;2023-04-19T05:31:06;28.13;;;16.60;;
69392;SDS011;56582;44.624;20.378;2023-04-19T05:33:32;29.20;;;16.87;;
69392;SDS011;56582;44.624;20.378;2023-04-19T05:35:58;29.73;;;16.35;;
69392;SDS011;56582;44.624;20.378;2023-04-19T05:38:23;47.37;;;22.93;;
69392;SDS011;56582;44.624;20.378;2023-04-19T05:40:49;42.57;;;21.70;;
69392;SDS011;56582;44.624;20.378;2023-04-19T05:43:14;33.35;;;20.25;;
69392;SDS011;56582;44.624;20.378;2023-04-19T05:45:40;30.73;;;17.23;;
69392;SDS011;56582;44.624;20.378;2023-04-19T05:48:05;29.80;;;17.07;;
69392;SDS011;56582;44.624;20.378;2023-04-19T05:50:31;29.47;;;17.43;;
69392;SDS011;56582;44.624;20.378;2023-04-19T05:52:56;27.20;;;15.47;;
69392;SDS011;56582;44.624;20.378;2023-04-19T05:55:22;25.77;;;15.40;;
69392;SDS011;56582;44.624;20.378;2023-04-19T05:57:47;25.37;;;16.20;;
69392;SDS011;56582;44.624;20.378;2023-04-19T06:00:13;24.38;;;15.18;;
69392;SDS011;56582;44.624;20.378;2023-04-19T06:02:40;18.17;;;11.57;;
69392;SDS011;56582;44.624;20.378;2023-04-19T06:05:05;21.43;;;13.90;;
69392;SDS011;56582;44.624;20.378;2023-04-19T06:07:31;20.33;;;12.65;;
69392;SDS011;56582;44.624;20.378;2023-04-19T06:09:57;21.80;;;13.33;;
69392;SDS011;56582;44.624;20.378;2023-04-19T06:12:22;21.13;;;12.03;;
69392;SDS011;56582;44.624;20.378;2023-04-19T06:14:48;24.45;;;14.38;;
69392;SDS011;56582;44.624;20.378;2023-04-19T06:17:13;20.90;;;11.90;;
69392;SDS011;56582;44.624;20.378;2023-04-19T06:19:41;20.48;;;12.82;;
69392;SDS011;56582;44.624;20.378;2023-04-19T06:22:06;26.70;;;14.80;;
69392;SDS011;56582;44.624;20.378;2023-04-19T06:24:32;18.67;;;11.10;;
69392;SDS011;56582;44.624;20.378;2023-04-19T06:26:57;20.33;;;11.27;;
69392;SDS011;56582;44.624;20.378;2023-04-19T06:29:23;17.20;;;10.40;;
69392;SDS011;56582;44.624;20.378;2023-04-19T06:31:49;18.70;;;11.93;;
69392;SDS011;56582;44.624;20.378;2023-04-19T06:34:15;14.65;;;8.82;;
69392;SDS011;56582;44.624;20.378;2023-04-19T06:36:40;15.70;;;10.20;;
69392;SDS011;56582;44.624;20.378;2023-04-19T06:39:06;14.00;;;9.30;;
69392;SDS011;56582;44.624;20.378;2023-04-19T06:41:31;14.90;;;9.40;;
69392;SDS011;56582;44.624;20.378;2023-04-19T06:43:57;12.50;;;8.33;;
69392;SDS011;56582;44.624;20.378;2023-04-19T06:46:22;16.30;;;9.97;;
69392;SDS011;56582;44.624;20.378;2023-04-19T06:48:48;17.98;;;9.82;;
69392;SDS011;56582;44.624;20.378;2023-04-19T06:51:13;17.00;;;10.87;;
69392;SDS011;56582;44.624;20.378;2023-04-19T06:53:39;16.52;;;10.57;;
69392;SDS011;56582;44.624;20.378;2023-04-19T06:56:05;14.93;;;9.63;;
69392;SDS011;56582;44.624;20.378;2023-04-19T06:58:31;18.03;;;10.67;;
69392;SDS011;56582;44.624;20.378;2023-04-19T07:00:57;16.98;;;10.45;;
69392;SDS011;56582;44.624;20.378;2023-04-19T07:03:23;25.95;;;14.88;;
69392;SDS011;56582;44.624;20.378;2023-04-19T07:05:48;16.33;;;10.13;;
69392;SDS011;56582;44.624;20.378;2023-04-19T07:08:16;19.77;;;10.68;;
69392;SDS011;56582;44.624;20.378;2023-04-19T07:10:41;22.37;;;11.33;;
69392;SDS011;56582;44.624;20.378;2023-04-19T07:13:09;13.63;;;8.30;;
69392;SDS011;56582;44.624;20.378;2023-04-19T07:15:35;15.30;;;9.60;;
69392;SDS011;56582;44.624;20.378;2023-04-19T07:18:01;14.88;;;8.52;;
69392;SDS011;56582;44.624;20.378;2023-04-19T07:20:26;15.10;;;10.57;;
69392;SDS011;56582;44.624;20.378;2023-04-19T07:22:51;12.83;;;8.37;;
69392;SDS011;56582;44.624;20.378;2023-04-19T07:25:17;15.75;;;8.70;;
69392;SDS011;56582;44.624;20.378;2023-04-19T07:27:43;12.60;;;8.03;;
69392;SDS011;56582;44.624;20.378;2023-04-19T07:30:08;11.63;;;7.07;;
69392;SDS011;56582;44.624;20.378;2023-04-19T07:32:34;10.48;;;6.80;;
69392;SDS011;56582;44.624;20.378;2023-04-19T07:35:00;10.27;;;6.80;;
69392;SDS011;56582;44.624;20.378;2023-04-19T07:37:25;10.93;;;6.87;;
69392;SDS011;56582;44.624;20.378;2023-04-19T07:39:50;10.23;;;6.20;;
69392;SDS011;56582;44.624;20.378;2023-04-19T07:42:16;10.13;;;6.20;;
69392;SDS011;56582;44.624;20.378;2023-04-19T07:44:41;13.00;;;7.90;;
69392;SDS011;56582;44.624;20.378;2023-04-19T07:47:07;12.10;;;7.33;;
69392;SDS011;56582;44.624;20.378;2023-04-19T07:49:32;9.83;;;6.23;;
69392;SDS011;56582;44.624;20.378;2023-04-19T07:51:59;13.50;;;7.13;;
69392;SDS011;56582;44.624;20.378;2023-04-19T07:54:25;11.85;;;6.97;;
69392;SDS011;56582;44.624;20.378;2023-04-19T07:56:52;10.37;;;6.37;;
69392;SDS011;56582;44.624;20.378;2023-04-19T07:59:18;12.60;;;6.88;;
69392;SDS011;56582;44.624;20.378;2023-04-19T08:01:43;10.60;;;6.20;;
69392;SDS011;56582;44.624;20.378;2023-04-19T08:04:09;10.97;;;7.83;;
69392;SDS011;56582;44.624;20.378;2023-04-19T08:06:34;10.73;;;7.13;;
69392;SDS011;56582;44.624;20.378;2023-04-19T08:09:02;10.40;;;5.60;;
69392;SDS011;56582;44.624;20.378;2023-04-19T08:11:27;9.23;;;6.78;;
69392;SDS011;56582;44.624;20.378;2023-04-19T08:13:53;10.43;;;6.53;;
69392;SDS011;56582;44.624;20.378;2023-04-19T08:16:18;20.77;;;7.85;;
69392;SDS011;56582;44.624;20.378;2023-04-19T08:18:44;7.57;;;5.70;;
69392;SDS011;56582;44.624;20.378;2023-04-19T08:21:10;9.77;;;6.53;;
69392;SDS011;56582;44.624;20.378;2023-04-19T08:23:36;10.47;;;5.77;;
69392;SDS011;56582;44.624;20.378;2023-04-19T08:26:01;8.57;;;6.65;;
69392;SDS011;56582;44.624;20.378;2023-04-19T08:28:27;9.47;;;5.73;;
69392;SDS011;56582;44.624;20.378;2023-04-19T08:30:53;8.97;;;6.30;;
69392;SDS011;56582;44.624;20.378;2023-04-19T08:33:19;9.70;;;7.00;;
69392;SDS011;56582;44.624;20.378;2023-04-19T08:35:44;10.48;;;6.50;;
69392;SDS011;56582;44.624;20.378;2023-04-19T08:38:10;9.70;;;6.90;;
69392;SDS011;56582;44.624;20.378;2023-04-19T08:40:37;10.90;;;7.03;;
69392;SDS011;56582;44.624;20.378;2023-04-19T08:43:07;8.93;;;6.22;;
69392;SDS011;56582;44.624;20.378;2023-04-19T08:45:33;9.43;;;6.80;;
69392;SDS011;56582;44.624;20.378;2023-04-19T08:48:00;10.52;;;7.30;;
69392;SDS011;56582;44.624;20.378;2023-04-19T08:50:26;11.77;;;7.03;;
69392;SDS011;56582;44.624;20.378;2023-04-19T08:52:51;12.15;;;7.15;;
69392;SDS011;56582;44.624;20.378;2023-04-19T08:55:17;13.07;;;6.67;;
69392;SDS011;56582;44.624;20.378;2023-04-19T08:57:43;9.85;;;7.20;;
69392;SDS011;56582;44.624;20.378;2023-04-19T09:00:08;15.77;;;9.80;;
69392;SDS011;56582;44.624;20.378;2023-04-19T09:02:48;11.13;;;7.47;;
69392;SDS011;56582;44.624;20.378;2023-04-19T09:05:16;7.90;;;4.93;;
69392;SDS011;56582;44.624;20.378;2023-04-19T09:07:42;12.82;;;6.65;;
69392;SDS011;56582;44.624;20.378;2023-04-19T09:12:36;10.00;;;6.38;;
69392;SDS011;56582;44.624;20.378;2023-04-19T09:15:03;15.25;;;10.00;;
69392;SDS011;56582;44.624;20.378;2023-04-19T09:17:30;15.35;;;9.50;;
69392;SDS011;56582;44.624;20.378;2023-04-19T09:19:57;12.50;;;7.40;;
69392;SDS011;56582;44.624;20.378;2023-04-19T09:22:23;8.00;;;5.90;;
69392;SDS011;56582;44.624;20.378;2023-04-19T09:24:49;10.50;;;7.85;;
69392;SDS011;56582;44.624;20.378;2023-04-19T09:27:24;12.65;;;7.72;;
69392;SDS011;56582;44.624;20.378;2023-04-19T09:29:54;13.60;;;8.23;;
69392;SDS011;56582;44.624;20.378;2023-04-19T09:32:21;10.60;;;6.97;;
69392;SDS011;56582;44.624;20.378;2023-04-19T09:34:54;10.75;;;7.00;;
69392;SDS011;56582;44.624;20.378;2023-04-19T09:37:21;11.10;;;6.80;;
69392;SDS011;56582;44.624;20.378;2023-04-19T09:39:47;9.38;;;6.20;;
69392;SDS011;56582;44.624;20.378;2023-04-19T09:42:12;8.63;;;6.20;;
69392;SDS011;56582;44.624;20.378;2023-04-19T09:44:38;13.17;;;7.57;;
69392;SDS011;56582;44.624;20.378;2023-04-19T09:47:25;8.57;;;6.63;;
69392;SDS011;56582;44.624;20.378;2023-04-19T09:50:06;8.57;;;6.00;;
69392;SDS011;56582;44.624;20.378;2023-04-19T09:52:35;11.37;;;7.43;;
69392;SDS011;56582;44.624;20.378;2023-04-19T09:55:02;13.73;;;9.07;;
69392;SDS011;56582;44.624;20.378;2023-04-19T09:57:30;11.55;;;7.22;;
69392;SDS011;56582;44.624;20.378;2023-04-19T09:59:57;9.68;;;6.72;;
69392;SDS011;56582;44.624;20.378;2023-04-19T10:02:23;8.60;;;6.00;;
69392;SDS011;56582;44.624;20.378;2023-04-19T10:04:50;9.73;;;6.00;;
69392;SDS011;56582;44.624;20.378;2023-04-19T10:07:17;8.38;;;6.00;;
69392;SDS011;56582;44.624;20.378;2023-04-19T10:09:42;14.77;;;9.17;;
69392;SDS011;56582;44.624;20.378;2023-04-19T10:12:11;14.35;;;9.77;;
69392;SDS011;56582;44.624;20.378;2023-04-19T10:14:40;11.57;;;6.97;;
69392;SDS011;56582;44.624;20.378;2023-04-19T10:17:06;16.45;;;7.60;;
69392;SDS011;56582;44.624;20.378;2023-04-19T10:19:32;10.57;;;5.90;;
69392;SDS011;56582;44.624;20.378;2023-04-19T10:21:59;14.63;;;6.53;;
69392;SDS011;56582;44.624;20.378;2023-04-19T10:24:29;15.10;;;7.75;;
69392;SDS011;56582;44.624;20.378;2023-04-19T10:32:19;9.95;;;6.22;;
69392;SDS011;56582;44.624;20.378;2023-04-19T10:34:45;12.00;;;7.63;;
69392;SDS011;56582;44.624;20.378;2023-04-19T10:37:14;10.00;;;6.55;;
69392;SDS011;56582;44.624;20.378;2023-04-19T10:39:40;9.25;;;5.13;;
69392;SDS011;56582;44.624;20.378;2023-04-19T10:42:06;9.30;;;6.20;;
69392;SDS011;56582;44.624;20.378;2023-04-19T10:44:32;7.50;;;5.47;;
69392;SDS011;56582;44.624;20.378;2023-04-19T10:46:57;11.73;;;5.90;;
69392;SDS011;56582;44.624;20.378;2023-04-19T10:49:24;15.63;;;8.98;;
69392;SDS011;56582;44.624;20.378;2023-04-19T10:51:50;7.80;;;4.80;;
69392;SDS011;56582;44.624;20.378;2023-04-19T10:54:28;8.25;;;5.50;;
69392;SDS011;56582;44.624;20.378;2023-04-19T10:59:29;9.05;;;5.18;;
69392;SDS011;56582;44.624;20.378;2023-04-19T11:07:17;10.40;;;5.97;;
69392;SDS011;56582;44.624;20.378;2023-04-19T11:09:44;7.38;;;4.50;;
69392;SDS011;56582;44.624;20.378;2023-04-19T11:12:11;8.25;;;4.55;;
69392;SDS011;56582;44.624;20.378;2023-04-19T11:14:41;10.35;;;6.22;;
69392;SDS011;56582;44.624;20.378;2023-04-19T11:17:17;8.97;;;4.60;;
69392;SDS011;56582;44.624;20.378;2023-04-19T11:22:45;21.67;;;9.15;;
69392;SDS011;56582;44.624;20.378;2023-04-19T11:25:11;16.88;;;8.38;;
69392;SDS011;56582;44.624;20.378;2023-04-19T11:27:39;15.15;;;7.97;;
69392;SDS011;56582;44.624;20.378;2023-04-19T11:30:12;13.27;;;7.67;;
69392;SDS011;56582;44.624;20.378;2023-04-19T11:32:52;13.15;;;8.70;;
69392;SDS011;56582;44.624;20.378;2023-04-19T11:35:19;12.25;;;7.85;;
69392;SDS011;56582;44.624;20.378;2023-04-19T11:37:46;18.27;;;10.60;;
69392;SDS011;56582;44.624;20.378;2023-04-19T11:40:15;13.07;;;6.03;;
69392;SDS011;56582;44.624;20.378;2023-04-19T11:42:41;19.70;;;10.52;;
69392;SDS011;56582;44.624;20.378;2023-04-19T11:45:08;14.20;;;8.25;;
69392;SDS011;56582;44.624;20.378;2023-04-19T11:47:34;9.87;;;4.93;;
69392;SDS011;56582;44.624;20.378;2023-04-19T11:52:55;18.48;;;10.77;;
69392;SDS011;56582;44.624;20.378;2023-04-19T11:55:21;12.30;;;7.30;;
69392;SDS011;56582;44.624;20.378;2023-04-19T11:57:46;10.43;;;5.50;;
69392;SDS011;56582;44.624;20.378;2023-04-19T12:00:12;8.97;;;5.57;;
69392;SDS011;56582;44.624;20.378;2023-04-19T12:02:38;13.65;;;8.13;;
69392;SDS011;56582;44.624;20.378;2023-04-19T12:05:08;11.88;;;7.95;;
69392;SDS011;56582;44.624;20.378;2023-04-19T12:07:34;9.55;;;7.68;;
69392;SDS011;56582;44.624;20.378;2023-04-19T12:10:10;11.77;;;7.30;;
69392;SDS011;56582;44.624;20.378;2023-04-19T12:12:36;12.80;;;8.57;;
69392;SDS011;56582;44.624;20.378;2023-04-19T12:15:03;13.35;;;8.38;;
69392;SDS011;56582;44.624;20.378;2023-04-19T12:17:30;12.90;;;10.82;;
69392;SDS011;56582;44.624;20.378;2023-04-19T12:19:55;22.73;;;13.50;;
69392;SDS011;56582;44.624;20.378;2023-04-19T12:22:20;11.63;;;7.47;;
69392;SDS011;56582;44.624;20.378;2023-04-19T12:24:51;9.52;;;7.15;;
69392;SDS011;56582;44.624;20.378;2023-04-19T12:27:17;12.63;;;9.10;;
69392;SDS011;56582;44.624;20.378;2023-04-19T12:29:43;12.07;;;8.23;;
69392;SDS011;56582;44.624;20.378;2023-04-19T12:32:09;15.25;;;11.05;;
69392;SDS011;56582;44.624;20.378;2023-04-19T12:34:35;10.18;;;7.47;;
69392;SDS011;56582;44.624;20.378;2023-04-19T12:37:00;15.80;;;8.50;;
69392;SDS011;56582;44.624;20.378;2023-04-19T12:39:28;10.02;;;6.10;;
69392;SDS011;56582;44.624;20.378;2023-04-19T12:41:55;10.15;;;7.38;;
69392;SDS011;56582;44.624;20.378;2023-04-19T12:44:20;9.60;;;6.33;;
69392;SDS011;56582;44.624;20.378;2023-04-19T12:46:46;13.02;;;6.55;;
69392;SDS011;56582;44.624;20.378;2023-04-19T12:49:12;9.37;;;6.13;;
69392;SDS011;56582;44.624;20.378;2023-04-19T12:51:37;33.63;;;9.98;;
69392;SDS011;56582;44.624;20.378;2023-04-19T12:54:03;11.13;;;6.07;;
69392;SDS011;56582;44.624;20.378;2023-04-19T12:56:28;9.90;;;6.30;;
69392;SDS011;56582;44.624;20.378;2023-04-19T12:58:54;11.55;;;7.38;;
69392;SDS011;56582;44.624;20.378;2023-04-19T13:01:19;16.97;;;9.73;;
69392;SDS011;56582;44.624;20.378;2023-04-19T13:03:44;9.90;;;7.70;;
69392;SDS011;56582;44.624;20.378;2023-04-19T13:06:10;10.43;;;7.10;;
69392;SDS011;56582;44.624;20.378;2023-04-19T13:08:38;21.63;;;10.57;;
69392;SDS011;56582;44.624;20.378;2023-04-19T13:11:04;13.70;;;9.32;;
69392;SDS011;56582;44.624;20.378;2023-04-19T13:13:29;14.40;;;8.67;;
69392;SDS011;56582;44.624;20.378;2023-04-19T13:15:55;11.80;;;7.70;;
69392;SDS011;56582;44.624;20.378;2023-04-19T13:18:20;16.40;;;8.43;;
69392;SDS011;56582;44.624;20.378;2023-04-19T13:20:46;17.00;;;10.33;;
69392;SDS011;56582;44.624;20.378;2023-04-19T13:23:12;18.45;;;9.85;;
69392;SDS011;56582;44.624;20.378;2023-04-19T13:25:39;12.83;;;9.50;;
69392;SDS011;56582;44.624;20.378;2023-04-19T13:28:04;13.57;;;9.18;;
69392;SDS011;56582;44.624;20.378;2023-04-19T13:30:30;14.50;;;8.80;;
69392;SDS011;56582;44.624;20.378;2023-04-19T13:32:55;20.60;;;14.97;;
69392;SDS011;56582;44.624;20.378;2023-04-19T13:35:21;17.40;;;10.70;;
69392;SDS011;56582;44.624;20.378;2023-04-19T13:37:46;16.07;;;10.53;;
69392;SDS011;56582;44.624;20.378;2023-04-19T13:40:12;11.67;;;7.83;;
69392;SDS011;56582;44.624;20.378;2023-04-19T13:42:38;9.93;;;6.32;;
69392;SDS011;56582;44.624;20.378;2023-04-19T13:45:03;11.97;;;7.70;;
69392;SDS011;56582;44.624;20.378;2023-04-19T13:47:29;13.15;;;8.65;;
69392;SDS011;56582;44.624;20.378;2023-04-19T13:49:55;14.57;;;9.73;;
69392;SDS011;56582;44.624;20.378;2023-04-19T13:52:20;16.33;;;12.20;;
69392;SDS011;56582;44.624;20.378;2023-04-19T13:54:47;8.50;;;6.00;;
69392;SDS011;56582;44.624;20.378;2023-04-19T13:57:13;9.90;;;6.90;;
69392;SDS011;56582;44.624;20.378;2023-04-19T13:59:38;11.23;;;7.93;;
69392;SDS011;56582;44.624;20.378;2023-04-19T14:02:04;11.77;;;7.88;;
69392;SDS011;56582;44.624;20.378;2023-04-19T14:04:29;12.50;;;8.23;;
69392;SDS011;56582;44.624;20.378;2023-04-19T14:06:55;13.13;;;8.33;;
69392;SDS011;56582;44.624;20.378;2023-04-19T14:09:20;13.43;;;8.97;;
69392;SDS011;56582;44.624;20.378;2023-04-19T14:11:46;13.97;;;8.30;;
69392;SDS011;56582;44.624;20.378;2023-04-19T14:14:13;13.85;;;8.70;;
69392;SDS011;56582;44.624;20.378;2023-04-19T14:16:39;11.15;;;9.52;;
69392;SDS011;56582;44.624;20.378;2023-04-19T14:19:05;15.43;;;9.20;;
69392;SDS011;56582;44.624;20.378;2023-04-19T14:21:30;11.70;;;7.83;;
69392;SDS011;56582;44.624;20.378;2023-04-19T14:23:56;25.40;;;12.90;;
69392;SDS011;56582;44.624;20.378;2023-04-19T14:26:22;61.42;;;23.73;;
69392;SDS011;56582;44.624;20.378;2023-04-19T14:28:47;16.13;;;10.23;;
69392;SDS011;56582;44.624;20.378;2023-04-19T14:31:13;11.87;;;9.13;;
69392;SDS011;56582;44.624;20.378;2023-04-19T14:33:38;10.73;;;9.40;;